sensor_id;sensor_type;location;lat;lon;timestamp;P1;durP1;ratioP1;P2;durP2;ratioP2
20454;SDS011;10386;54.314;10.022;2022-09-02T00:01:59;1.80;;;1.50;;
20454;SDS011;10386;54.314;10.022;2022-09-02T00:04:27;1.77;;;1.50;;
20454;SDS011;10386;54.314;10.022;2022-09-02T00:06:54;1.30;;;1.20;;
20454;SDS011;10386;54.314;10.022;2022-09-02T00:09:22;1.23;;;1.13;;
20454;SDS011;10386;54.314;10.022;2022-09-02T00:11:51;1.87;;;1.27;;
20454;SDS011;10386;54.314;10.022;2022-09-02T00:14:22;1.50;;;1.40;;
20454;SDS011;10386;54.314;10.022;2022-09-02T00:16:51;1.43;;;1.33;;
20454;SDS011;10386;54.314;10.022;2022-09-02T00:19:18;1.93;;;1.40;;
20454;SDS011;10386;54.314;10.022;2022-09-02T00:21:47;1.93;;;1.27;;
20454;SDS011;10386;54.314;10.022;2022-09-02T00:24:15;1.30;;;1.10;;
20454;SDS011;10386;54.314;10.022;2022-09-02T00:26:42;1.40;;;1.30;;
20454;SDS011;10386;54.314;10.022;2022-09-02T00:29:10;1.40;;;1.30;;
20454;SDS011;10386;54.314;10.022;2022-09-02T00:31:38;2.03;;;1.40;;
20454;SDS011;10386;54.314;10.022;2022-09-02T00:34:06;1.87;;;1.40;;
20454;SDS011;10386;54.314;10.022;2022-09-02T00:36:32;1.40;;;1.30;;
20454;SDS011;10386;54.314;10.022;2022-09-02T00:38:59;2.23;;;1.10;;
20454;SDS011;10386;54.314;10.022;2022-09-02T00:41:27;1.27;;;1.27;;
20454;SDS011;10386;54.314;10.022;2022-09-02T00:43:59;1.40;;;1.30;;
20454;SDS011;10386;54.314;10.022;2022-09-02T00:46:29;1.73;;;1.30;;
20454;SDS011;10386;54.314;10.022;2022-09-02T00:54:26;1.37;;;1.27;;
20454;SDS011;10386;54.314;10.022;2022-09-02T00:56:55;1.33;;;1.27;;
20454;SDS011;10386;54.314;10.022;2022-09-02T00:59:34;1.50;;;1.40;;
20454;SDS011;10386;54.314;10.022;2022-09-02T01:02:29;1.80;;;1.50;;
20454;SDS011;10386;54.314;10.022;2022-09-02T01:04:57;1.63;;;1.40;;
20454;SDS011;10386;54.314;10.022;2022-09-02T01:07:26;3.87;;;1.50;;
20454;SDS011;10386;54.314;10.022;2022-09-02T01:09:58;2.20;;;1.27;;
20454;SDS011;10386;54.314;10.022;2022-09-02T01:12:26;1.00;;;1.00;;
20454;SDS011;10386;54.314;10.022;2022-09-02T01:14:55;1.37;;;1.27;;
20454;SDS011;10386;54.314;10.022;2022-09-02T01:17:23;3.03;;;1.80;;
20454;SDS011;10386;54.314;10.022;2022-09-02T01:19:52;1.40;;;1.30;;
20454;SDS011;10386;54.314;10.022;2022-09-02T01:22:25;1.47;;;1.20;;
20454;SDS011;10386;54.314;10.022;2022-09-02T01:24:57;2.00;;;1.30;;
20454;SDS011;10386;54.314;10.022;2022-09-02T01:27:29;1.93;;;1.57;;
20454;SDS011;10386;54.314;10.022;2022-09-02T01:29:57;1.13;;;1.13;;
20454;SDS011;10386;54.314;10.022;2022-09-02T01:32:26;2.53;;;1.37;;
20454;SDS011;10386;54.314;10.022;2022-09-02T01:34:54;1.30;;;1.20;;
20454;SDS011;10386;54.314;10.022;2022-09-02T01:37:21;1.47;;;1.37;;
20454;SDS011;10386;54.314;10.022;2022-09-02T01:39:48;1.70;;;1.60;;
20454;SDS011;10386;54.314;10.022;2022-09-02T01:42:15;1.33;;;1.20;;
20454;SDS011;10386;54.314;10.022;2022-09-02T01:44:41;1.33;;;1.33;;
20454;SDS011;10386;54.314;10.022;2022-09-02T01:47:22;2.20;;;1.30;;
20454;SDS011;10386;54.314;10.022;2022-09-02T01:49:50;1.33;;;1.13;;
20454;SDS011;10386;54.314;10.022;2022-09-02T01:52:17;2.30;;;1.60;;
20454;SDS011;10386;54.314;10.022;2022-09-02T01:54:45;1.50;;;1.40;;
20454;SDS011;10386;54.314;10.022;2022-09-02T01:57:12;1.53;;;1.43;;
20454;SDS011;10386;54.314;10.022;2022-09-02T01:59:38;1.40;;;1.30;;
20454;SDS011;10386;54.314;10.022;2022-09-02T02:02:05;2.30;;;1.40;;
20454;SDS011;10386;54.314;10.022;2022-09-02T02:04:32;1.60;;;1.50;;
20454;SDS011;10386;54.314;10.022;2022-09-02T02:07:00;1.90;;;1.80;;
20454;SDS011;10386;54.314;10.022;2022-09-02T02:09:27;1.47;;;1.37;;
20454;SDS011;10386;54.314;10.022;2022-09-02T02:11:54;1.90;;;1.30;;
20454;SDS011;10386;54.314;10.022;2022-09-02T02:14:22;1.40;;;1.30;;
20454;SDS011;10386;54.314;10.022;2022-09-02T02:16:49;1.50;;;1.37;;
20454;SDS011;10386;54.314;10.022;2022-09-02T02:19:16;1.87;;;1.30;;
20454;SDS011;10386;54.314;10.022;2022-09-02T02:21:43;1.50;;;1.40;;
20454;SDS011;10386;54.314;10.022;2022-09-02T02:24:10;1.50;;;1.40;;
20454;SDS011;10386;54.314;10.022;2022-09-02T02:26:37;2.17;;;1.40;;
20454;SDS011;10386;54.314;10.022;2022-09-02T02:29:04;1.30;;;1.20;;
20454;SDS011;10386;54.314;10.022;2022-09-02T02:31:31;1.20;;;1.20;;
20454;SDS011;10386;54.314;10.022;2022-09-02T02:33:58;1.33;;;1.27;;
20454;SDS011;10386;54.314;10.022;2022-09-02T02:36:25;1.20;;;1.20;;
20454;SDS011;10386;54.314;10.022;2022-09-02T02:38:52;1.60;;;1.50;;
20454;SDS011;10386;54.314;10.022;2022-09-02T02:41:19;1.40;;;1.30;;
20454;SDS011;10386;54.314;10.022;2022-09-02T02:43:47;1.43;;;1.30;;
20454;SDS011;10386;54.314;10.022;2022-09-02T02:46:14;2.33;;;1.60;;
20454;SDS011;10386;54.314;10.022;2022-09-02T02:48:41;2.23;;;1.40;;
20454;SDS011;10386;54.314;10.022;2022-09-02T02:51:08;1.93;;;1.40;;
20454;SDS011;10386;54.314;10.022;2022-09-02T02:53:35;1.50;;;1.40;;
20454;SDS011;10386;54.314;10.022;2022-09-02T02:56:02;1.90;;;1.43;;
20454;SDS011;10386;54.314;10.022;2022-09-02T02:58:30;1.40;;;1.30;;
20454;SDS011;10386;54.314;10.022;2022-09-02T03:00:57;2.20;;;1.47;;
20454;SDS011;10386;54.314;10.022;2022-09-02T03:03:25;1.57;;;1.47;;
20454;SDS011;10386;54.314;10.022;2022-09-02T03:05:52;1.37;;;1.37;;
20454;SDS011;10386;54.314;10.022;2022-09-02T03:08:20;1.30;;;1.20;;
20454;SDS011;10386;54.314;10.022;2022-09-02T03:10:47;1.57;;;1.40;;
20454;SDS011;10386;54.314;10.022;2022-09-02T03:13:19;1.30;;;1.20;;
20454;SDS011;10386;54.314;10.022;2022-09-02T03:15:52;1.33;;;1.23;;
20454;SDS011;10386;54.314;10.022;2022-09-02T03:18:19;1.40;;;1.30;;
20454;SDS011;10386;54.314;10.022;2022-09-02T03:20:46;1.67;;;1.57;;
20454;SDS011;10386;54.314;10.022;2022-09-02T03:23:12;1.63;;;1.53;;
20454;SDS011;10386;54.314;10.022;2022-09-02T03:25:40;1.87;;;1.33;;
20454;SDS011;10386;54.314;10.022;2022-09-02T03:28:10;3.27;;;1.50;;
20454;SDS011;10386;54.314;10.022;2022-09-02T03:30:38;1.20;;;1.20;;
20454;SDS011;10386;54.314;10.022;2022-09-02T03:33:05;1.40;;;1.30;;
20454;SDS011;10386;54.314;10.022;2022-09-02T03:35:33;1.83;;;1.40;;
20454;SDS011;10386;54.314;10.022;2022-09-02T03:38:04;1.50;;;1.40;;
20454;SDS011;10386;54.314;10.022;2022-09-02T03:40:31;3.37;;;1.77;;
20454;SDS011;10386;54.314;10.022;2022-09-02T03:42:58;1.77;;;1.33;;
20454;SDS011;10386;54.314;10.022;2022-09-02T03:45:26;4.23;;;1.20;;
20454;SDS011;10386;54.314;10.022;2022-09-02T03:47:53;1.77;;;1.30;;
20454;SDS011;10386;54.314;10.022;2022-09-02T03:50:25;1.43;;;1.33;;
20454;SDS011;10386;54.314;10.022;2022-09-02T03:52:55;1.63;;;1.20;;
20454;SDS011;10386;54.314;10.022;2022-09-02T03:55:23;3.70;;;1.57;;
20454;SDS011;10386;54.314;10.022;2022-09-02T03:57:50;3.87;;;1.50;;
20454;SDS011;10386;54.314;10.022;2022-09-02T04:00:18;4.20;;;1.47;;
20454;SDS011;10386;54.314;10.022;2022-09-02T04:02:49;1.80;;;1.63;;
20454;SDS011;10386;54.314;10.022;2022-09-02T04:05:17;1.70;;;1.60;;
20454;SDS011;10386;54.314;10.022;2022-09-02T04:07:44;1.90;;;1.57;;
20454;SDS011;10386;54.314;10.022;2022-09-02T04:10:12;2.97;;;2.20;;
20454;SDS011;10386;54.314;10.022;2022-09-02T04:12:40;2.33;;;2.07;;
20454;SDS011;10386;54.314;10.022;2022-09-02T04:15:08;2.00;;;1.77;;
20454;SDS011;10386;54.314;10.022;2022-09-02T04:17:37;2.43;;;1.90;;
20454;SDS011;10386;54.314;10.022;2022-09-02T04:20:05;2.13;;;2.03;;
20454;SDS011;10386;54.314;10.022;2022-09-02T04:22:33;5.73;;;2.03;;
20454;SDS011;10386;54.314;10.022;2022-09-02T04:25:00;4.40;;;2.00;;
20454;SDS011;10386;54.314;10.022;2022-09-02T04:27:28;2.20;;;1.90;;
20454;SDS011;10386;54.314;10.022;2022-09-02T04:29:55;2.20;;;2.00;;
20454;SDS011;10386;54.314;10.022;2022-09-02T04:32:22;4.17;;;2.30;;
20454;SDS011;10386;54.314;10.022;2022-09-02T04:34:51;2.30;;;2.10;;
20454;SDS011;10386;54.314;10.022;2022-09-02T04:37:17;2.30;;;2.10;;
20454;SDS011;10386;54.314;10.022;2022-09-02T04:39:44;2.07;;;1.83;;
20454;SDS011;10386;54.314;10.022;2022-09-02T04:42:11;2.20;;;1.80;;
20454;SDS011;10386;54.314;10.022;2022-09-02T04:44:38;2.13;;;1.73;;
20454;SDS011;10386;54.314;10.022;2022-09-02T04:47:05;2.00;;;1.70;;
20454;SDS011;10386;54.314;10.022;2022-09-02T04:49:32;2.57;;;1.70;;
20454;SDS011;10386;54.314;10.022;2022-09-02T04:51:59;1.83;;;1.73;;
20454;SDS011;10386;54.314;10.022;2022-09-02T04:54:26;2.67;;;2.00;;
20454;SDS011;10386;54.314;10.022;2022-09-02T04:56:53;2.20;;;2.00;;
20454;SDS011;10386;54.314;10.022;2022-09-02T04:59:20;3.03;;;1.90;;
20454;SDS011;10386;54.314;10.022;2022-09-02T05:01:47;2.17;;;1.83;;
20454;SDS011;10386;54.314;10.022;2022-09-02T05:04:15;2.10;;;1.93;;
20454;SDS011;10386;54.314;10.022;2022-09-02T05:06:42;1.90;;;1.80;;
20454;SDS011;10386;54.314;10.022;2022-09-02T05:09:10;4.60;;;1.90;;
20454;SDS011;10386;54.314;10.022;2022-09-02T05:11:36;4.60;;;2.27;;
20454;SDS011;10386;54.314;10.022;2022-09-02T05:14:04;3.47;;;2.23;;
20454;SDS011;10386;54.314;10.022;2022-09-02T05:16:35;2.97;;;2.00;;
20454;SDS011;10386;54.314;10.022;2022-09-02T05:19:04;2.63;;;2.07;;
20454;SDS011;10386;54.314;10.022;2022-09-02T05:21:38;3.00;;;2.07;;
20454;SDS011;10386;54.314;10.022;2022-09-02T05:24:05;2.27;;;2.07;;
20454;SDS011;10386;54.314;10.022;2022-09-02T05:26:32;2.73;;;2.27;;
20454;SDS011;10386;54.314;10.022;2022-09-02T05:29:04;5.60;;;2.50;;
20454;SDS011;10386;54.314;10.022;2022-09-02T05:31:33;3.10;;;2.20;;
20454;SDS011;10386;54.314;10.022;2022-09-02T05:34:00;4.90;;;2.43;;
20454;SDS011;10386;54.314;10.022;2022-09-02T05:36:27;3.30;;;2.07;;
20454;SDS011;10386;54.314;10.022;2022-09-02T05:38:54;4.17;;;2.37;;
20454;SDS011;10386;54.314;10.022;2022-09-02T05:41:21;2.67;;;2.30;;
20454;SDS011;10386;54.314;10.022;2022-09-02T05:43:54;5.07;;;2.20;;
20454;SDS011;10386;54.314;10.022;2022-09-02T05:46:26;4.90;;;2.50;;
20454;SDS011;10386;54.314;10.022;2022-09-02T05:48:54;6.10;;;2.50;;
20454;SDS011;10386;54.314;10.022;2022-09-02T05:51:47;5.10;;;2.50;;
20454;SDS011;10386;54.314;10.022;2022-09-02T05:54:20;4.50;;;2.60;;
20454;SDS011;10386;54.314;10.022;2022-09-02T05:56:51;2.60;;;2.20;;
20454;SDS011;10386;54.314;10.022;2022-09-02T05:59:20;3.80;;;2.67;;
20454;SDS011;10386;54.314;10.022;2022-09-02T06:01:48;3.47;;;2.50;;
20454;SDS011;10386;54.314;10.022;2022-09-02T06:04:16;3.40;;;2.40;;
20454;SDS011;10386;54.314;10.022;2022-09-02T06:06:43;4.40;;;2.43;;
20454;SDS011;10386;54.314;10.022;2022-09-02T06:09:12;2.60;;;2.40;;
20454;SDS011;10386;54.314;10.022;2022-09-02T06:11:41;3.30;;;2.40;;
20454;SDS011;10386;54.314;10.022;2022-09-02T06:14:15;3.33;;;2.37;;
20454;SDS011;10386;54.314;10.022;2022-09-02T06:16:48;2.90;;;1.90;;
20454;SDS011;10386;54.314;10.022;2022-09-02T06:19:21;2.43;;;2.00;;
20454;SDS011;10386;54.314;10.022;2022-09-02T06:21:51;2.53;;;1.50;;
20454;SDS011;10386;54.314;10.022;2022-09-02T06:24:19;1.40;;;1.30;;
20454;SDS011;10386;54.314;10.022;2022-09-02T06:26:46;2.53;;;1.60;;
20454;SDS011;10386;54.314;10.022;2022-09-02T06:29:13;1.67;;;1.37;;
20454;SDS011;10386;54.314;10.022;2022-09-02T06:31:41;1.47;;;1.27;;
20454;SDS011;10386;54.314;10.022;2022-09-02T06:34:09;4.30;;;1.27;;
20454;SDS011;10386;54.314;10.022;2022-09-02T06:36:38;1.57;;;1.30;;
20454;SDS011;10386;54.314;10.022;2022-09-02T06:39:09;1.40;;;1.23;;
20454;SDS011;10386;54.314;10.022;2022-09-02T06:41:38;3.30;;;1.23;;
20454;SDS011;10386;54.314;10.022;2022-09-02T06:44:06;1.73;;;1.10;;
20454;SDS011;10386;54.314;10.022;2022-09-02T06:46:36;1.30;;;1.00;;
20454;SDS011;10386;54.314;10.022;2022-09-02T06:49:04;2.50;;;1.40;;
20454;SDS011;10386;54.314;10.022;2022-09-02T06:51:37;2.57;;;1.33;;
20454;SDS011;10386;54.314;10.022;2022-09-02T06:54:07;2.10;;;1.10;;
20454;SDS011;10386;54.314;10.022;2022-09-02T06:56:39;5.50;;;1.27;;
20454;SDS011;10386;54.314;10.022;2022-09-02T06:59:14;1.37;;;1.17;;
20454;SDS011;10386;54.314;10.022;2022-09-02T07:01:41;1.17;;;1.07;;
20454;SDS011;10386;54.314;10.022;2022-09-02T07:04:09;2.20;;;1.23;;
20454;SDS011;10386;54.314;10.022;2022-09-02T07:06:55;2.37;;;1.30;;
20454;SDS011;10386;54.314;10.022;2022-09-02T07:09:23;1.97;;;1.27;;
20454;SDS011;10386;54.314;10.022;2022-09-02T07:11:58;0.90;;;0.80;;
20454;SDS011;10386;54.314;10.022;2022-09-02T07:14:31;1.90;;;1.40;;
20454;SDS011;10386;54.314;10.022;2022-09-02T07:17:03;1.17;;;1.10;;
20454;SDS011;10386;54.314;10.022;2022-09-02T07:19:30;2.10;;;1.20;;
20454;SDS011;10386;54.314;10.022;2022-09-02T07:21:57;2.07;;;1.30;;
20454;SDS011;10386;54.314;10.022;2022-09-02T07:24:24;3.63;;;0.93;;
20454;SDS011;10386;54.314;10.022;2022-09-02T07:26:50;3.27;;;1.00;;
20454;SDS011;10386;54.314;10.022;2022-09-02T07:29:21;0.97;;;0.97;;
20454;SDS011;10386;54.314;10.022;2022-09-02T07:31:49;2.40;;;1.10;;
20454;SDS011;10386;54.314;10.022;2022-09-02T07:34:16;1.60;;;1.40;;
20454;SDS011;10386;54.314;10.022;2022-09-02T07:36:43;1.33;;;1.13;;
20454;SDS011;10386;54.314;10.022;2022-09-02T07:39:14;1.00;;;1.00;;
20454;SDS011;10386;54.314;10.022;2022-09-02T07:41:44;1.07;;;1.07;;
20454;SDS011;10386;54.314;10.022;2022-09-02T07:44:13;2.40;;;1.10;;
20454;SDS011;10386;54.314;10.022;2022-09-02T07:46:41;3.43;;;0.90;;
20454;SDS011;10386;54.314;10.022;2022-09-02T07:49:12;4.03;;;1.10;;
20454;SDS011;10386;54.314;10.022;2022-09-02T07:51:40;1.37;;;1.00;;
20454;SDS011;10386;54.314;10.022;2022-09-02T07:54:09;0.83;;;0.80;;
20454;SDS011;10386;54.314;10.022;2022-09-02T07:56:37;1.73;;;0.80;;
20454;SDS011;10386;54.314;10.022;2022-09-02T07:59:04;2.40;;;1.00;;
20454;SDS011;10386;54.314;10.022;2022-09-02T08:01:31;0.80;;;0.80;;
20454;SDS011;10386;54.314;10.022;2022-09-02T08:03:57;0.90;;;0.90;;
20454;SDS011;10386;54.314;10.022;2022-09-02T08:06:29;2.20;;;0.60;;
20454;SDS011;10386;54.314;10.022;2022-09-02T08:09:00;1.03;;;1.00;;
20454;SDS011;10386;54.314;10.022;2022-09-02T08:11:31;1.20;;;1.10;;
20454;SDS011;10386;54.314;10.022;2022-09-02T08:14:00;1.63;;;1.00;;
20454;SDS011;10386;54.314;10.022;2022-09-02T08:16:27;1.00;;;1.00;;
20454;SDS011;10386;54.314;10.022;2022-09-02T08:18:54;3.70;;;1.00;;
20454;SDS011;10386;54.314;10.022;2022-09-02T08:21:21;0.70;;;0.70;;
20454;SDS011;10386;54.314;10.022;2022-09-02T08:23:48;0.80;;;0.80;;
20454;SDS011;10386;54.314;10.022;2022-09-02T08:26:16;2.10;;;1.00;;
20454;SDS011;10386;54.314;10.022;2022-09-02T08:28:44;1.03;;;0.97;;
20454;SDS011;10386;54.314;10.022;2022-09-02T08:31:11;0.70;;;0.70;;
20454;SDS011;10386;54.314;10.022;2022-09-02T08:33:37;0.70;;;0.70;;
20454;SDS011;10386;54.314;10.022;2022-09-02T08:36:05;0.90;;;0.85;;
20454;SDS011;10386;54.314;10.022;2022-09-02T08:38:37;0.80;;;0.80;;
20454;SDS011;10386;54.314;10.022;2022-09-02T08:41:21;1.38;;;0.90;;
20454;SDS011;10386;54.314;10.022;2022-09-02T08:43:48;2.13;;;1.02;;
20454;SDS011;10386;54.314;10.022;2022-09-02T08:46:16;0.70;;;0.70;;
20454;SDS011;10386;54.314;10.022;2022-09-02T08:51:39;2.15;;;0.90;;
20454;SDS011;10386;54.314;10.022;2022-09-02T08:54:08;1.77;;;0.80;;
20454;SDS011;10386;54.314;10.022;2022-09-02T08:56:45;1.48;;;0.63;;
20454;SDS011;10386;54.314;10.022;2022-09-02T08:59:17;1.65;;;0.80;;
20454;SDS011;10386;54.314;10.022;2022-09-02T09:04:55;1.00;;;0.70;;
20454;SDS011;10386;54.314;10.022;2022-09-02T09:19:46;0.50;;;0.50;;
20454;SDS011;10386;54.314;10.022;2022-09-02T09:22:17;0.70;;;0.70;;
20454;SDS011;10386;54.314;10.022;2022-09-02T09:24:48;0.70;;;0.70;;
20454;SDS011;10386;54.314;10.022;2022-09-02T09:27:17;0.80;;;0.80;;
20454;SDS011;10386;54.314;10.022;2022-09-02T09:29:50;1.85;;;0.80;;
20454;SDS011;10386;54.314;10.022;2022-09-02T09:32:23;1.30;;;0.77;;
20454;SDS011;10386;54.314;10.022;2022-09-02T09:34:56;1.05;;;0.95;;
20454;SDS011;10386;54.314;10.022;2022-09-02T09:40:27;2.60;;;0.88;;
20454;SDS011;10386;54.314;10.022;2022-09-02T09:45:31;0.60;;;0.60;;
20454;SDS011;10386;54.314;10.022;2022-09-02T09:50:42;0.57;;;0.57;;
20454;SDS011;10386;54.314;10.022;2022-09-02T09:53:20;0.70;;;0.70;;
20454;SDS011;10386;54.314;10.022;2022-09-02T09:58:16;2.45;;;0.68;;
20454;SDS011;10386;54.314;10.022;2022-09-02T10:00:43;1.17;;;0.60;;
20454;SDS011;10386;54.314;10.022;2022-09-02T10:03:17;2.65;;;0.93;;
20454;SDS011;10386;54.314;10.022;2022-09-02T10:05:51;3.13;;;1.10;;
20454;SDS011;10386;54.314;10.022;2022-09-02T10:08:22;2.25;;;0.68;;
20454;SDS011;10386;54.314;10.022;2022-09-02T10:11:02;0.93;;;0.70;;
20454;SDS011;10386;54.314;10.022;2022-09-02T10:13:32;0.90;;;0.90;;
20454;SDS011;10386;54.314;10.022;2022-09-02T10:19:16;0.80;;;0.80;;
20454;SDS011;10386;54.314;10.022;2022-09-02T10:21:55;1.98;;;0.90;;
20454;SDS011;10386;54.314;10.022;2022-09-02T10:27:06;2.05;;;0.73;;
20454;SDS011;10386;54.314;10.022;2022-09-02T10:35:10;2.38;;;1.00;;
20454;SDS011;10386;54.314;10.022;2022-09-02T10:37:59;1.10;;;0.90;;
20454;SDS011;10386;54.314;10.022;2022-09-02T10:40:39;1.17;;;0.80;;
20454;SDS011;10386;54.314;10.022;2022-09-02T10:46:07;3.42;;;0.93;;
20454;SDS011;10386;54.314;10.022;2022-09-02T10:54:25;0.60;;;0.60;;
20454;SDS011;10386;54.314;10.022;2022-09-02T10:59:47;0.80;;;0.68;;
20454;SDS011;10386;54.314;10.022;2022-09-02T11:02:17;0.52;;;0.52;;
20454;SDS011;10386;54.314;10.022;2022-09-02T11:04:55;1.48;;;0.50;;
20454;SDS011;10386;54.314;10.022;2022-09-02T11:07:28;1.00;;;0.70;;
20454;SDS011;10386;54.314;10.022;2022-09-02T11:10:06;0.70;;;0.70;;
20454;SDS011;10386;54.314;10.022;2022-09-02T11:12:39;0.90;;;0.90;;
20454;SDS011;10386;54.314;10.022;2022-09-02T11:15:17;1.35;;;0.57;;
20454;SDS011;10386;54.314;10.022;2022-09-02T11:17:58;0.82;;;0.60;;
20454;SDS011;10386;54.314;10.022;2022-09-02T11:20:48;0.80;;;0.80;;
20454;SDS011;10386;54.314;10.022;2022-09-02T11:23:26;0.55;;;0.55;;
20454;SDS011;10386;54.314;10.022;2022-09-02T11:26:27;2.30;;;0.60;;
20454;SDS011;10386;54.314;10.022;2022-09-02T11:29:13;2.15;;;0.60;;
20454;SDS011;10386;54.314;10.022;2022-09-02T11:31:56;0.45;;;0.45;;
20454;SDS011;10386;54.314;10.022;2022-09-02T11:34:40;1.08;;;0.55;;
20454;SDS011;10386;54.314;10.022;2022-09-02T11:37:13;0.70;;;0.70;;
20454;SDS011;10386;54.314;10.022;2022-09-02T11:39:52;0.80;;;0.77;;
20454;SDS011;10386;54.314;10.022;2022-09-02T11:48:48;0.77;;;0.60;;
20454;SDS011;10386;54.314;10.022;2022-09-02T11:54:15;1.45;;;0.82;;
20454;SDS011;10386;54.314;10.022;2022-09-02T11:56:48;0.73;;;0.50;;
20454;SDS011;10386;54.314;10.022;2022-09-02T11:59:19;0.68;;;0.60;;
20454;SDS011;10386;54.314;10.022;2022-09-02T12:01:50;0.57;;;0.57;;
20454;SDS011;10386;54.314;10.022;2022-09-02T12:04:21;1.35;;;0.50;;
20454;SDS011;10386;54.314;10.022;2022-09-02T12:09:43;1.20;;;0.73;;
20454;SDS011;10386;54.314;10.022;2022-09-02T12:23:04;1.00;;;0.50;;
20454;SDS011;10386;54.314;10.022;2022-09-02T12:25:34;0.50;;;0.50;;
20454;SDS011;10386;54.314;10.022;2022-09-02T12:28:22;1.02;;;0.60;;
20454;SDS011;10386;54.314;10.022;2022-09-02T12:35:58;0.77;;;0.73;;
20454;SDS011;10386;54.314;10.022;2022-09-02T12:38:27;1.15;;;0.68;;
20454;SDS011;10386;54.314;10.022;2022-09-02T12:43:32;1.27;;;1.05;;
20454;SDS011;10386;54.314;10.022;2022-09-02T12:54:29;1.33;;;0.80;;
20454;SDS011;10386;54.314;10.022;2022-09-02T12:56:57;1.02;;;0.70;;
20454;SDS011;10386;54.314;10.022;2022-09-02T12:59:34;0.57;;;0.57;;
20454;SDS011;10386;54.314;10.022;2022-09-02T13:32:41;2.65;;;0.57;;
20454;SDS011;10386;54.314;10.022;2022-09-02T13:35:16;0.80;;;0.77;;
20454;SDS011;10386;54.314;10.022;2022-09-02T13:37:56;4.63;;;1.02;;
20454;SDS011;10386;54.314;10.022;2022-09-02T13:40:31;2.28;;;0.95;;
20454;SDS011;10386;54.314;10.022;2022-09-02T13:45:37;1.10;;;1.10;;
20454;SDS011;10386;54.314;10.022;2022-09-02T13:48:21;2.45;;;0.80;;
20454;SDS011;10386;54.314;10.022;2022-09-02T13:50:51;0.82;;;0.82;;
20454;SDS011;10386;54.314;10.022;2022-09-02T13:53:23;2.15;;;0.90;;
20454;SDS011;10386;54.314;10.022;2022-09-02T13:56:22;0.93;;;0.88;;
20454;SDS011;10386;54.314;10.022;2022-09-02T13:58:51;5.25;;;0.90;;
20454;SDS011;10386;54.314;10.022;2022-09-02T14:01:27;1.13;;;0.80;;
20454;SDS011;10386;54.314;10.022;2022-09-02T14:03:57;1.58;;;0.90;;
20454;SDS011;10386;54.314;10.022;2022-09-02T14:06:27;1.13;;;0.70;;
20454;SDS011;10386;54.314;10.022;2022-09-02T14:08:57;0.75;;;0.73;;
20454;SDS011;10386;54.314;10.022;2022-09-02T14:11:34;0.70;;;0.70;;
20454;SDS011;10386;54.314;10.022;2022-09-02T14:14:08;0.70;;;0.70;;
20454;SDS011;10386;54.314;10.022;2022-09-02T14:16:39;1.50;;;0.88;;
20454;SDS011;10386;54.314;10.022;2022-09-02T14:21:47;0.82;;;0.82;;
20454;SDS011;10386;54.314;10.022;2022-09-02T14:24:23;2.10;;;0.75;;
20454;SDS011;10386;54.314;10.022;2022-09-02T14:26:55;1.27;;;0.80;;
20454;SDS011;10386;54.314;10.022;2022-09-02T14:29:24;0.82;;;0.82;;
20454;SDS011;10386;54.314;10.022;2022-09-02T14:32:05;2.45;;;0.85;;
20454;SDS011;10386;54.314;10.022;2022-09-02T14:34:43;1.95;;;0.80;;
20454;SDS011;10386;54.314;10.022;2022-09-02T14:40:07;1.52;;;0.73;;
20454;SDS011;10386;54.314;10.022;2022-09-02T14:42:50;0.90;;;0.90;;
20454;SDS011;10386;54.314;10.022;2022-09-02T14:48:08;4.32;;;1.65;;
20454;SDS011;10386;54.314;10.022;2022-09-02T14:50:41;1.88;;;0.95;;
20454;SDS011;10386;54.314;10.022;2022-09-02T14:53:08;1.20;;;0.95;;
20454;SDS011;10386;54.314;10.022;2022-09-02T14:55:47;0.80;;;0.80;;
20454;SDS011;10386;54.314;10.022;2022-09-02T14:58:20;1.13;;;0.65;;
20454;SDS011;10386;54.314;10.022;2022-09-02T15:00:56;1.15;;;0.70;;
20454;SDS011;10386;54.314;10.022;2022-09-02T15:03:25;2.70;;;1.00;;
20454;SDS011;10386;54.314;10.022;2022-09-02T15:05:53;1.95;;;0.85;;
20454;SDS011;10386;54.314;10.022;2022-09-02T15:08:20;2.17;;;0.80;;
20454;SDS011;10386;54.314;10.022;2022-09-02T15:10:58;2.95;;;0.98;;
20454;SDS011;10386;54.314;10.022;2022-09-02T15:13:32;2.05;;;0.93;;
20454;SDS011;10386;54.314;10.022;2022-09-02T15:16:00;3.17;;;0.90;;
20454;SDS011;10386;54.314;10.022;2022-09-02T15:18:28;0.63;;;0.60;;
20454;SDS011;10386;54.314;10.022;2022-09-02T15:20:55;2.30;;;0.80;;
20454;SDS011;10386;54.314;10.022;2022-09-02T15:23:23;0.95;;;0.80;;
20454;SDS011;10386;54.314;10.022;2022-09-02T15:25:51;1.15;;;0.90;;
20454;SDS011;10386;54.314;10.022;2022-09-02T15:28:20;2.05;;;0.75;;
20454;SDS011;10386;54.314;10.022;2022-09-02T15:30:46;0.82;;;0.60;;
20454;SDS011;10386;54.314;10.022;2022-09-02T15:33:13;0.88;;;0.88;;
20454;SDS011;10386;54.314;10.022;2022-09-02T15:35:42;2.08;;;0.82;;
20454;SDS011;10386;54.314;10.022;2022-09-02T15:38:09;1.30;;;0.82;;
20454;SDS011;10386;54.314;10.022;2022-09-02T15:40:36;4.68;;;0.85;;
20454;SDS011;10386;54.314;10.022;2022-09-02T15:43:03;1.45;;;0.95;;
20454;SDS011;10386;54.314;10.022;2022-09-02T15:45:30;1.08;;;0.90;;
20454;SDS011;10386;54.314;10.022;2022-09-02T15:47:57;1.05;;;0.95;;
20454;SDS011;10386;54.314;10.022;2022-09-02T15:50:25;0.70;;;0.70;;
20454;SDS011;10386;54.314;10.022;2022-09-02T15:52:55;2.40;;;0.88;;
20454;SDS011;10386;54.314;10.022;2022-09-02T15:55:21;0.70;;;0.70;;
20454;SDS011;10386;54.314;10.022;2022-09-02T15:57:54;0.60;;;0.60;;
20454;SDS011;10386;54.314;10.022;2022-09-02T16:00:21;2.00;;;1.00;;
20454;SDS011;10386;54.314;10.022;2022-09-02T16:02:52;1.90;;;0.80;;
20454;SDS011;10386;54.314;10.022;2022-09-02T16:05:19;2.65;;;0.77;;
20454;SDS011;10386;54.314;10.022;2022-09-02T16:07:46;2.38;;;1.10;;
20454;SDS011;10386;54.314;10.022;2022-09-02T16:10:13;2.00;;;0.85;;
20454;SDS011;10386;54.314;10.022;2022-09-02T16:12:45;1.42;;;0.70;;
20454;SDS011;10386;54.314;10.022;2022-09-02T16:15:13;2.33;;;0.90;;
20454;SDS011;10386;54.314;10.022;2022-09-02T16:17:40;2.90;;;0.80;;
20454;SDS011;10386;54.314;10.022;2022-09-02T16:20:07;2.35;;;0.95;;
20454;SDS011;10386;54.314;10.022;2022-09-02T16:22:34;0.82;;;0.68;;
20454;SDS011;10386;54.314;10.022;2022-09-02T16:25:01;0.90;;;0.90;;
20454;SDS011;10386;54.314;10.022;2022-09-02T16:27:28;2.88;;;1.00;;
20454;SDS011;10386;54.314;10.022;2022-09-02T16:30:14;0.50;;;0.50;;
20454;SDS011;10386;54.314;10.022;2022-09-02T16:32:42;2.67;;;1.10;;
20454;SDS011;10386;54.314;10.022;2022-09-02T16:35:10;1.23;;;1.13;;
20454;SDS011;10386;54.314;10.022;2022-09-02T16:37:37;1.70;;;1.17;;
20454;SDS011;10386;54.314;10.022;2022-09-02T16:40:04;1.00;;;0.68;;
20454;SDS011;10386;54.314;10.022;2022-09-02T16:42:31;1.33;;;0.95;;
20454;SDS011;10386;54.314;10.022;2022-09-02T16:45:03;1.00;;;1.00;;
20454;SDS011;10386;54.314;10.022;2022-09-02T16:47:30;1.00;;;0.90;;
20454;SDS011;10386;54.314;10.022;2022-09-02T16:49:57;1.23;;;1.10;;
20454;SDS011;10386;54.314;10.022;2022-09-02T16:52:24;0.93;;;0.93;;
20454;SDS011;10386;54.314;10.022;2022-09-02T16:54:53;1.42;;;0.90;;
20454;SDS011;10386;54.314;10.022;2022-09-02T16:57:20;1.30;;;0.93;;
20454;SDS011;10386;54.314;10.022;2022-09-02T16:59:47;1.63;;;0.70;;
20454;SDS011;10386;54.314;10.022;2022-09-02T17:02:14;1.38;;;1.10;;
20454;SDS011;10386;54.314;10.022;2022-09-02T17:04:41;2.28;;;1.02;;
20454;SDS011;10386;54.314;10.022;2022-09-02T17:07:10;4.03;;;0.95;;
20454;SDS011;10386;54.314;10.022;2022-09-02T17:09:40;1.10;;;1.00;;